createdAt,value
2024-04-17T00:00:29.581Z,95941.72
2024-04-17T00:02:56.514Z,95950.13
2024-04-17T00:05:23.452Z,95957.06
2024-04-17T00:07:50.476Z,95957.84
2024-04-17T00:10:17.414Z,95958.28
2024-04-17T00:12:44.279Z,95964.34
2024-04-17T00:15:11.156Z,95951.66
2024-04-17T00:17:38.076Z,95950.28
2024-04-17T00:20:05.002Z,95955.63
2024-04-17T00:22:31.936Z,95959.25
2024-04-17T00:24:58.821Z,95962.22
2024-04-17T00:27:25.692Z,95961.25
2024-04-17T00:29:52.589Z,95956.16
2024-04-17T00:32:19.757Z,95956.41
2024-04-17T00:34:46.690Z,95962.44
2024-04-17T00:37:13.595Z,95958.00
2024-04-17T00:39:40.453Z,95953.69
2024-04-17T00:42:07.324Z,95954.25
2024-04-17T00:44:34.216Z,95953.09
2024-04-17T00:47:01.385Z,95949.25
2024-04-17T00:49:28.424Z,95945.44
2024-04-17T00:51:55.348Z,95943.44
2024-04-17T00:54:22.284Z,95943.31
2024-04-17T00:56:49.298Z,95943.88
2024-04-17T00:59:16.202Z,95942.63
2024-04-17T01:01:43.107Z,95938.59
2024-04-17T01:04:10.050Z,95935.13
2024-04-17T01:06:36.962Z,95937.53
2024-04-17T01:09:03.865Z,95925.97
2024-04-17T01:11:30.817Z,95926.63
2024-04-17T01:13:57.748Z,95930.09
2024-04-17T01:16:24.716Z,95930.81
2024-04-17T01:18:51.608Z,95923.75
2024-04-17T01:21:18.478Z,95926.97
2024-04-17T01:23:45.350Z,95923.78
2024-04-17T01:26:12.251Z,95921.75
2024-04-17T01:28:39.248Z,95924.75
2024-04-17T01:31:06.188Z,95919.41
2024-04-17T01:33:33.108Z,95920.84
2024-04-17T01:36:00.041Z,95918.72
2024-04-17T01:38:26.954Z,95916.28
2024-04-17T01:40:53.896Z,95921.63
2024-04-17T01:43:20.837Z,95920.19
2024-04-17T01:45:47.715Z,95910.44
2024-04-17T01:48:14.661Z,95923.50
2024-04-17T01:50:41.570Z,95930.03
2024-04-17T01:53:08.458Z,95919.28
2024-04-17T01:55:35.374Z,95927.47
2024-04-17T01:58:02.285Z,95918.84
2024-04-17T02:00:29.186Z,95929.66
2024-04-17T02:02:56.143Z,95926.78
2024-04-17T02:05:23.053Z,95931.13
2024-04-17T02:07:50.005Z,95925.84
2024-04-17T02:10:17.029Z,95928.06
2024-04-17T02:12:43.902Z,95932.69
2024-04-17T02:15:10.761Z,95926.03
2024-04-17T02:17:37.794Z,95927.97
2024-04-17T02:20:04.721Z,95929.56
2024-04-17T02:22:31.593Z,95930.78
2024-04-17T02:24:58.511Z,95921.16
2024-04-17T02:27:25.407Z,95925.91
2024-04-17T02:29:52.300Z,95923.16
2024-04-17T02:32:19.203Z,95925.91
2024-04-17T02:34:46.109Z,95922.16
2024-04-17T02:37:13.006Z,95921.94
2024-04-17T02:39:39.905Z,95911.69
2024-04-17T02:42:06.858Z,95917.34
2024-04-17T02:44:33.759Z,95919.44
2024-04-17T02:47:00.747Z,95919.66
2024-04-17T02:49:27.732Z,95920.44
2024-04-17T02:51:54.646Z,95926.22
2024-04-17T02:54:21.542Z,95927.94
2024-04-17T02:56:48.444Z,95928.66
2024-04-17T02:59:15.315Z,95932.06
2024-04-17T03:01:42.202Z,95936.22
2024-04-17T03:04:09.138Z,95938.38
2024-04-17T03:06:36.066Z,95943.97
2024-04-17T03:09:03.051Z,95944.19
2024-04-17T03:11:30.031Z,95937.94
2024-04-17T03:13:56.983Z,95941.81
2024-04-17T03:16:23.910Z,95940.69
2024-04-17T03:18:50.810Z,95933.56
2024-04-17T03:21:17.671Z,95937.31
2024-04-17T03:23:44.555Z,95941.91
2024-04-17T03:26:11.419Z,95943.75
2024-04-17T03:28:38.334Z,95942.97
2024-04-17T03:31:05.216Z,95947.34
2024-04-17T03:33:32.170Z,95943.78
2024-04-17T03:35:59.156Z,95946.47
2024-04-17T03:38:26.066Z,95949.16
2024-04-17T03:40:53.075Z,95953.81
2024-04-17T03:43:20.013Z,95948.94
2024-04-17T03:45:46.877Z,95949.25
2024-04-17T03:48:13.847Z,95956.91
2024-04-17T03:50:40.784Z,95964.00
2024-04-17T03:53:07.674Z,95960.16
2024-04-17T03:55:34.680Z,95965.75
2024-04-17T03:58:01.580Z,95963.78
2024-04-17T04:00:28.530Z,95961.75
2024-04-17T04:02:55.640Z,95961.75
2024-04-17T04:05:22.697Z,95956.00
2024-04-17T04:07:49.656Z,95960.88
2024-04-17T04:10:16.540Z,95964.66
2024-04-17T04:12:43.429Z,95976.38
2024-04-17T04:15:10.361Z,95976.50
2024-04-17T04:17:37.415Z,95972.75
2024-04-17T04:20:04.371Z,95966.59
2024-04-17T04:22:31.332Z,95972.00
2024-04-17T04:24:58.250Z,95982.81
2024-04-17T04:27:25.132Z,95980.84
2024-04-17T04:29:52.074Z,95989.13
2024-04-17T04:32:19.051Z,95983.88
2024-04-17T04:34:46.024Z,95990.84
2024-04-17T04:37:12.911Z,95980.97
2024-04-17T04:39:39.805Z,95978.44
2024-04-17T04:42:06.702Z,95978.38
2024-04-17T04:44:33.600Z,95970.66
2024-04-17T04:47:01.454Z,95971.31
2024-04-17T04:49:28.390Z,95962.19
2024-04-17T04:51:55.297Z,95960.13
2024-04-17T04:54:22.176Z,95967.94
2024-04-17T04:56:49.055Z,95975.25
2024-04-17T04:59:15.930Z,95975.56
2024-04-17T05:01:42.830Z,95979.00
2024-04-17T05:04:09.881Z,95986.50
2024-04-17T05:06:36.804Z,95981.00
2024-04-17T05:09:03.686Z,95987.66
2024-04-17T05:11:30.601Z,95985.78
2024-04-17T05:13:57.584Z,95989.16
2024-04-17T05:16:24.551Z,95993.56
2024-04-17T05:18:51.473Z,95997.97
2024-04-17T05:21:18.346Z,95993.06
2024-04-17T05:23:45.218Z,95999.81
2024-04-17T05:26:12.108Z,96013.09
2024-04-17T05:28:39.049Z,96011.50
2024-04-17T05:31:05.953Z,96011.06
2024-04-17T05:33:32.981Z,96009.63
2024-04-17T05:35:59.913Z,96006.41
2024-04-17T05:38:26.847Z,96003.56
2024-04-17T05:40:53.785Z,96010.19
2024-04-17T05:43:20.707Z,96008.41
2024-04-17T05:45:47.577Z,96003.38
2024-04-17T05:48:14.614Z,95992.19
2024-04-17T05:50:41.600Z,95998.81
2024-04-17T05:53:08.481Z,95992.22
2024-04-17T05:55:35.377Z,95996.09
2024-04-17T05:58:02.365Z,95995.53
2024-04-17T06:00:29.241Z,96002.56
2024-04-17T06:02:57.984Z,96000.91
2024-04-17T06:05:26.021Z,95998.59
2024-04-17T06:07:52.918Z,95998.38
2024-04-17T06:10:19.833Z,96000.91
2024-04-17T06:12:46.716Z,95997.50
2024-04-17T06:15:13.592Z,95995.88
2024-04-17T06:17:40.483Z,96006.03
2024-04-17T06:20:07.574Z,96011.84
2024-04-17T06:22:34.503Z,96017.03
2024-04-17T06:25:01.409Z,96007.69
2024-04-17T06:27:28.275Z,96016.75
2024-04-17T06:29:55.176Z,96008.59
2024-04-17T06:32:22.152Z,96006.88
2024-04-17T06:34:49.154Z,96015.25
2024-04-17T06:37:16.074Z,96019.84
2024-04-17T06:39:43.081Z,96006.34
2024-04-17T06:42:09.973Z,96009.81
2024-04-17T06:44:36.860Z,96011.63
2024-04-17T06:47:03.856Z,96012.31
2024-04-17T06:49:30.896Z,96015.16
2024-04-17T06:51:57.808Z,96018.09
2024-04-17T06:54:24.679Z,96025.41
2024-04-17T06:56:51.571Z,96025.84
2024-04-17T06:59:18.456Z,96026.25
2024-04-17T07:01:45.468Z,96027.22
2024-04-17T07:04:12.387Z,96031.78
2024-04-17T07:06:39.593Z,96036.63
2024-04-17T07:09:06.535Z,96027.13
2024-04-17T07:11:33.482Z,96030.16
2024-04-17T07:14:00.482Z,96021.72
2024-04-17T07:16:27.437Z,96029.50
2024-04-17T07:18:54.362Z,96024.75
2024-04-17T07:21:21.258Z,96031.44
2024-04-17T07:23:48.151Z,96032.97
2024-04-17T07:26:15.019Z,96030.97
2024-04-17T07:28:41.974Z,96027.31
2024-04-17T07:31:08.889Z,96024.16
2024-04-17T07:33:35.906Z,96027.25
2024-04-17T07:36:02.860Z,96024.22
2024-04-17T07:38:29.948Z,96027.06
2024-04-17T07:40:56.894Z,96025.06
2024-04-17T07:43:23.890Z,96026.28
2024-04-17T07:45:50.804Z,96021.78
2024-04-17T07:48:17.782Z,96027.03
2024-04-17T07:50:44.723Z,96021.09
2024-04-17T07:53:11.613Z,96016.91
2024-04-17T07:55:38.485Z,96019.78
2024-04-17T07:58:05.353Z,96016.03
2024-04-17T08:00:32.272Z,96024.31
2024-04-17T08:02:59.185Z,96019.97
2024-04-17T08:05:26.937Z,96017.41
2024-04-17T08:07:54.649Z,96010.78
2024-04-17T08:10:21.544Z,96013.81
2024-04-17T08:12:48.446Z,96017.13
2024-04-17T08:15:15.334Z,96015.06
2024-04-17T08:17:42.277Z,96015.91
2024-04-17T08:20:09.416Z,96012.00
2024-04-17T08:22:36.436Z,96020.75
2024-04-17T08:25:03.348Z,96021.13
2024-04-17T08:27:30.244Z,96027.72
2024-04-17T08:29:57.133Z,96025.31
2024-04-17T08:32:24.090Z,96020.28
2024-04-17T08:34:52.745Z,96016.56
2024-04-17T08:37:19.888Z,96016.75
2024-04-17T08:39:46.798Z,96018.00
2024-04-17T08:42:13.699Z,96026.75
2024-04-17T08:44:40.598Z,96025.91
2024-04-17T08:47:09.676Z,96024.31
2024-04-17T08:49:36.826Z,96020.44
2024-04-17T08:52:03.742Z,96025.59
2024-04-17T08:54:30.655Z,96032.94
2024-04-17T08:56:57.534Z,96017.28
2024-04-17T08:59:24.410Z,96029.13
2024-04-17T09:01:51.391Z,96027.00
2024-04-17T09:04:18.316Z,96023.66
2024-04-17T09:06:45.215Z,96019.28
2024-04-17T09:09:12.092Z,96024.44
2024-04-17T09:11:39.022Z,96020.84
2024-04-17T09:14:05.974Z,96035.00
2024-04-17T09:16:32.985Z,96030.34
2024-04-17T09:18:59.971Z,96030.69
2024-04-17T09:21:26.845Z,96029.06
2024-04-17T09:23:56.096Z,96029.25
2024-04-17T09:26:23.203Z,96029.34
2024-04-17T09:28:50.125Z,96030.75
2024-04-17T09:31:17.011Z,96035.25
2024-04-17T09:33:43.884Z,96022.00
2024-04-17T09:36:10.769Z,96026.31
2024-04-17T09:38:37.757Z,96027.91
2024-04-17T09:41:04.661Z,96025.72
2024-04-17T09:43:31.642Z,96035.41
2024-04-17T09:45:58.562Z,96027.00
2024-04-17T09:48:25.481Z,96026.31
2024-04-17T09:50:52.356Z,96030.75
2024-04-17T09:53:28.042Z,96024.31
2024-04-17T09:56:02.502Z,96025.25
2024-04-17T09:58:29.456Z,96020.75
2024-04-17T10:00:56.366Z,96028.69
2024-04-17T10:03:23.287Z,96033.31
2024-04-17T10:05:50.180Z,96039.34
2024-04-17T10:08:17.207Z,96042.91
2024-04-17T10:10:44.145Z,96042.31
2024-04-17T10:13:11.066Z,96046.22
2024-04-17T10:15:37.967Z,96041.53
2024-04-17T10:18:05.034Z,96040.78
2024-04-17T10:20:31.998Z,96046.97
2024-04-17T10:22:58.921Z,96039.69
2024-04-17T10:25:32.031Z,96038.31
2024-04-17T10:28:05.417Z,96031.16
2024-04-17T10:30:32.343Z,96033.75
2024-04-17T10:32:59.386Z,96034.63
2024-04-17T10:35:26.374Z,96034.00
2024-04-17T10:37:53.287Z,96023.44
2024-04-17T10:40:20.204Z,96033.56
2024-04-17T10:42:47.098Z,96029.34
2024-04-17T10:45:14.067Z,96025.44
2024-04-17T10:47:40.989Z,96019.19
2024-04-17T10:50:08.027Z,96019.88
2024-04-17T10:52:35.137Z,96009.78
2024-04-17T10:55:02.269Z,96013.06
2024-04-17T10:57:29.320Z,96011.34
2024-04-17T10:59:56.229Z,96004.59
2024-04-17T11:02:23.152Z,96007.81
2024-04-17T11:04:50.176Z,96009.22
2024-04-17T11:07:17.086Z,96002.69
2024-04-17T11:09:43.987Z,96013.59
2024-04-17T11:12:10.861Z,96011.00
2024-04-17T11:14:37.762Z,96025.63
2024-04-17T11:17:04.692Z,96023.91
2024-04-17T11:19:31.676Z,96031.63
2024-04-17T11:21:58.599Z,96018.69
2024-04-17T11:24:25.467Z,96017.59
2024-04-17T11:26:52.421Z,96019.09
2024-04-17T11:29:29.690Z,96015.44
2024-04-17T11:32:03.612Z,96013.50
2024-04-17T11:34:30.617Z,96022.28
2024-04-17T11:36:57.663Z,96022.53
2024-04-17T11:39:24.552Z,96017.31
2024-04-17T11:41:51.478Z,96026.38
2024-04-17T11:44:18.389Z,96017.16
2024-04-17T11:46:45.285Z,96012.16
2024-04-17T11:49:12.175Z,96007.81
2024-04-17T11:51:39.052Z,96011.00
2024-04-17T11:54:05.924Z,96005.19
2024-04-17T11:56:32.829Z,96005.56
2024-04-17T11:58:59.767Z,96008.22
2024-04-17T12:01:26.674Z,96004.50
2024-04-17T12:03:53.610Z,96003.31
2024-04-17T12:06:20.605Z,96015.44
2024-04-17T12:08:47.494Z,96011.19
2024-04-17T12:11:14.483Z,96012.56
2024-04-17T12:13:41.460Z,96022.56
2024-04-17T12:16:08.397Z,96017.19
2024-04-17T12:18:35.314Z,96025.84
2024-04-17T12:21:02.201Z,96020.56
2024-04-17T12:23:29.109Z,96014.44
2024-04-17T12:25:56.048Z,96012.22
2024-04-17T12:28:22.934Z,96001.78
2024-04-17T12:30:49.834Z,95998.69
2024-04-17T12:33:16.781Z,95991.50
2024-04-17T12:35:43.705Z,95980.44
2024-04-17T12:38:10.612Z,95990.31
2024-04-17T12:40:37.645Z,95982.59
2024-04-17T12:43:04.591Z,95968.84
2024-04-17T12:45:31.473Z,95972.78
2024-04-17T12:47:58.430Z,95964.75
2024-04-17T12:50:25.375Z,95958.91
2024-04-17T12:52:52.292Z,95960.28
2024-04-17T12:55:19.490Z,95967.13
2024-04-17T12:57:46.408Z,95965.88
2024-04-17T13:00:13.308Z,95961.72
2024-04-17T13:02:40.327Z,95964.38
2024-04-17T13:05:07.479Z,95965.50
2024-04-17T13:07:34.494Z,95962.41
2024-04-17T13:10:01.472Z,95953.75
2024-04-17T13:12:28.374Z,95962.00
2024-04-17T13:14:55.360Z,95964.75
2024-04-17T13:17:22.325Z,95955.72
2024-04-17T13:19:49.302Z,95953.38
2024-04-17T13:22:16.189Z,95956.91
2024-04-17T13:24:43.245Z,95950.59
2024-04-17T13:27:10.296Z,95941.97
2024-04-17T13:29:37.198Z,95952.09
2024-04-17T13:32:04.235Z,95948.41
2024-04-17T13:34:31.274Z,95951.63
2024-04-17T13:36:58.209Z,95952.53
2024-04-17T13:39:25.110Z,95940.00
2024-04-17T13:41:51.987Z,95930.97
2024-04-17T13:44:19.066Z,95934.13
2024-04-17T13:46:46.061Z,95927.75
2024-04-17T13:49:12.994Z,95928.97
2024-04-17T13:51:39.877Z,95921.59
2024-04-17T13:54:06.793Z,95920.56
2024-04-17T13:56:33.669Z,95922.66
2024-04-17T13:59:00.631Z,95912.47
2024-04-17T14:01:27.540Z,95920.84
2024-04-17T14:03:54.474Z,95905.34
2024-04-17T14:06:21.393Z,95917.47
2024-04-17T14:08:49.196Z,95918.22
2024-04-17T14:11:16.295Z,95919.91
2024-04-17T14:13:42.856Z,95910.59
2024-04-17T14:16:09.376Z,95923.72
2024-04-17T14:18:36.232Z,95914.78
2024-04-17T14:21:02.915Z,95907.97
2024-04-17T14:23:29.744Z,95921.28
2024-04-17T14:25:56.254Z,95924.69
2024-04-17T14:28:22.769Z,95926.78
2024-04-17T14:30:49.274Z,95918.13
2024-04-17T14:33:15.901Z,95916.13
2024-04-17T14:35:42.550Z,95911.56
2024-04-17T14:38:09.060Z,95901.34
2024-04-17T14:40:35.645Z,95897.75
2024-04-17T14:43:02.139Z,95894.94
2024-04-17T14:45:28.692Z,95881.69
2024-04-17T14:47:55.281Z,95881.59
2024-04-17T14:50:21.824Z,95868.28
2024-04-17T14:52:48.333Z,95871.44
2024-04-17T14:55:14.837Z,95874.22
2024-04-17T14:57:41.412Z,95871.97
2024-04-17T15:00:07.976Z,95877.28
2024-04-17T15:02:34.530Z,95880.31
2024-04-17T15:05:01.046Z,95875.44
2024-04-17T15:07:29.001Z,95872.25
2024-04-17T15:09:55.835Z,95874.44
2024-04-17T15:12:22.748Z,95878.25
2024-04-17T15:14:49.727Z,95871.72
2024-04-17T15:17:16.652Z,95876.50
2024-04-17T15:19:43.559Z,95872.78
2024-04-17T15:22:10.466Z,95864.59
2024-04-17T15:24:37.369Z,95864.63
2024-04-17T15:27:04.295Z,95876.66
2024-04-17T15:29:31.215Z,95865.91
2024-04-17T15:31:58.142Z,95864.53
2024-04-17T15:34:25.164Z,95866.72
2024-04-17T15:36:52.079Z,95861.97
2024-04-17T15:39:18.986Z,95861.84
2024-04-17T15:41:45.888Z,95859.53
2024-04-17T15:44:12.791Z,95870.59
2024-04-17T15:46:39.678Z,95875.38
2024-04-17T15:49:06.615Z,95864.50
2024-04-17T15:51:33.580Z,95863.22
2024-04-17T15:54:00.485Z,95865.69
2024-04-17T15:56:27.381Z,95870.25
2024-04-17T15:58:54.268Z,95869.44
2024-04-17T16:01:21.429Z,95874.72
2024-04-17T16:03:48.581Z,95880.44
2024-04-17T16:06:15.548Z,95883.72
2024-04-17T16:08:42.495Z,95884.44
2024-04-17T16:11:09.480Z,95879.81
2024-04-17T16:13:36.433Z,95875.38
2024-04-17T16:16:03.311Z,95877.53
2024-04-17T16:18:30.311Z,95872.66
2024-04-17T16:21:00.300Z,95873.44
2024-04-17T16:23:27.284Z,95879.94
2024-04-17T16:25:54.229Z,95880.75
2024-04-17T16:28:21.279Z,95877.84
2024-04-17T16:30:48.206Z,95883.75
2024-04-17T16:33:15.159Z,95880.22
2024-04-17T16:35:42.070Z,95884.19
2024-04-17T16:38:08.959Z,95886.84
2024-04-17T16:40:35.858Z,95903.81
2024-04-17T16:43:02.914Z,95901.75
2024-04-17T16:45:30.086Z,95916.47
2024-04-17T16:47:57.220Z,95928.03
2024-04-17T16:50:24.270Z,95930.38
2024-04-17T16:52:51.208Z,95937.78
2024-04-17T16:55:18.127Z,95943.31
2024-04-17T16:57:45.046Z,95952.94
2024-04-17T17:00:11.965Z,95954.31
2024-04-17T17:02:39.129Z,95958.34
2024-04-17T17:05:06.064Z,95963.50
2024-04-17T17:07:32.957Z,95964.06
2024-04-17T17:09:59.846Z,95957.56
2024-04-17T17:12:26.787Z,95952.41
2024-04-17T17:14:53.735Z,95947.00
2024-04-17T17:17:20.601Z,95951.81
2024-04-17T17:19:47.485Z,95958.91
2024-04-17T17:22:14.452Z,95956.72
2024-04-17T17:24:41.413Z,95965.75
2024-04-17T17:27:08.391Z,95964.81
2024-04-17T17:29:35.394Z,95974.16
2024-04-17T17:32:02.310Z,95977.25
2024-04-17T17:34:29.192Z,95971.28
2024-04-17T17:36:56.090Z,95972.47
2024-04-17T17:39:27.123Z,95964.59
2024-04-17T17:41:54.801Z,95964.59
2024-04-17T17:44:21.766Z,95961.59
2024-04-17T17:46:48.656Z,95969.09
2024-04-17T17:49:15.679Z,95968.47
2024-04-17T17:51:42.663Z,95968.31
2024-04-17T17:54:09.646Z,95973.56
2024-04-17T17:56:36.562Z,95974.53
2024-04-17T17:59:03.488Z,95971.22
2024-04-17T18:01:30.364Z,95968.00
2024-04-17T18:03:57.351Z,95972.94
2024-04-17T18:06:24.344Z,95975.94
2024-04-17T18:08:51.293Z,95978.88
2024-04-17T18:11:18.222Z,95979.66
2024-04-17T18:13:45.189Z,95976.03
2024-04-17T18:16:19.515Z,95975.06
2024-04-17T18:18:52.831Z,95979.72
2024-04-17T18:21:19.946Z,95978.38
2024-04-17T18:23:46.834Z,95990.88
2024-04-17T18:26:13.824Z,95977.41
2024-04-17T18:28:40.760Z,95989.59
2024-04-17T18:31:07.660Z,95975.09
2024-04-17T18:33:34.647Z,95980.34
2024-04-17T18:36:01.608Z,95983.06
2024-04-17T18:38:28.514Z,95980.84
2024-04-17T18:40:55.446Z,95979.09
2024-04-17T18:43:22.388Z,95979.72
2024-04-17T18:45:49.267Z,95985.88
2024-04-17T18:48:16.245Z,95984.75
2024-04-17T18:50:43.179Z,95993.47
2024-04-17T18:53:10.057Z,95986.75
2024-04-17T18:55:37.120Z,96001.09
2024-04-17T18:58:04.042Z,96006.84
2024-04-17T19:00:31.021Z,95998.06
2024-04-17T19:02:57.950Z,95997.88
2024-04-17T19:05:24.846Z,96003.53
2024-04-17T19:07:51.734Z,96001.63
2024-04-17T19:10:18.642Z,96002.97
2024-04-17T19:12:45.533Z,96006.03
2024-04-17T19:15:12.551Z,96013.75
2024-04-17T19:17:39.488Z,96015.16
2024-04-17T19:20:06.408Z,96011.47
2024-04-17T19:22:33.266Z,96012.53
2024-04-17T19:25:00.192Z,96014.91
2024-04-17T19:27:27.124Z,96018.69
2024-04-17T19:30:01.811Z,96018.56
2024-04-17T19:32:36.460Z,96022.00
2024-04-17T19:35:03.385Z,96012.31
2024-04-17T19:37:30.312Z,96025.09
2024-04-17T19:39:57.246Z,96016.69
2024-04-17T19:42:28.356Z,96019.34
2024-04-17T19:44:57.233Z,96013.41
2024-04-17T19:47:24.121Z,96014.16
2024-04-17T19:49:51.011Z,96016.44
2024-04-17T19:52:17.913Z,96014.75
2024-04-17T19:54:44.947Z,96010.00
2024-04-17T19:57:11.875Z,96024.50
2024-04-17T19:59:38.805Z,96022.75
2024-04-17T20:02:05.715Z,96031.25
2024-04-17T20:04:32.834Z,96035.44
2024-04-17T20:06:59.879Z,96034.03
2024-04-17T20:09:26.841Z,96043.28
2024-04-17T20:11:53.741Z,96027.00
2024-04-17T20:14:20.642Z,96037.25
2024-04-17T20:16:47.546Z,96044.50
2024-04-17T20:19:14.550Z,96047.41
2024-04-17T20:21:41.579Z,96047.69
2024-04-17T20:24:08.567Z,96050.44
2024-04-17T20:26:35.551Z,96043.38
2024-04-17T20:29:06.330Z,96040.34
2024-04-17T20:31:34.732Z,96045.91
2024-04-17T20:34:01.714Z,96045.84
2024-04-17T20:36:28.749Z,96045.78
2024-04-17T20:38:55.675Z,96039.09
2024-04-17T20:41:22.635Z,96033.94
2024-04-17T20:43:49.556Z,96037.59
2024-04-17T20:46:16.459Z,96040.47
2024-04-17T20:48:43.443Z,96050.66
2024-04-17T20:51:10.402Z,96043.56
2024-04-17T20:53:37.317Z,96040.91
2024-04-17T20:56:04.279Z,96037.97
2024-04-17T20:58:31.187Z,96037.97
2024-04-17T21:00:58.286Z,96032.63
2024-04-17T21:03:25.354Z,96042.03
2024-04-17T21:05:52.248Z,96035.16
2024-04-17T21:08:19.104Z,96033.84
2024-04-17T21:10:46.018Z,96039.91
2024-04-17T21:13:12.903Z,96029.78
2024-04-17T21:15:39.941Z,96028.50
2024-04-17T21:18:07.084Z,96012.19
2024-04-17T21:20:34.056Z,96010.09
2024-04-17T21:23:00.967Z,96013.91
2024-04-17T21:25:27.837Z,96009.03
2024-04-17T21:27:54.788Z,96000.56
2024-04-17T21:30:21.685Z,96006.78
2024-04-17T21:32:48.787Z,96005.56
2024-04-17T21:35:15.736Z,95997.50
2024-04-17T21:37:42.618Z,96000.59
2024-04-17T21:40:09.512Z,96000.25
2024-04-17T21:42:36.468Z,95999.78
2024-04-17T21:45:03.422Z,95998.97
2024-04-17T21:47:30.398Z,96004.63
2024-04-17T21:49:57.340Z,95995.41
2024-04-17T21:52:24.274Z,95988.22
2024-04-17T21:54:51.220Z,95993.38
2024-04-17T21:57:18.188Z,95999.50
2024-04-17T21:59:45.095Z,96000.22
2024-04-17T22:02:11.984Z,95989.59
2024-04-17T22:04:38.987Z,95994.03
2024-04-17T22:07:05.942Z,95979.03
2024-04-17T22:09:32.837Z,95977.81
2024-04-17T22:11:59.720Z,95974.53
2024-04-17T22:14:26.835Z,95982.03
2024-04-17T22:16:54.377Z,95982.38
2024-04-17T22:19:21.332Z,95972.41
2024-04-17T22:21:48.233Z,95976.84
2024-04-17T22:24:15.163Z,95969.53
2024-04-17T22:26:42.082Z,95966.16
2024-04-17T22:29:08.966Z,95967.16
2024-04-17T22:31:35.881Z,95964.84
2024-04-17T22:34:02.857Z,95966.03
2024-04-17T22:36:29.812Z,95963.44
2024-04-17T22:38:56.766Z,95970.47
2024-04-17T22:41:23.649Z,95975.69
2024-04-17T22:43:50.523Z,95971.91
2024-04-17T22:46:17.393Z,95970.63
2024-04-17T22:48:44.381Z,95979.72
2024-04-17T22:51:11.322Z,95971.13
2024-04-17T22:53:38.189Z,95973.66
2024-04-17T22:56:05.075Z,95975.22
2024-04-17T22:58:32.012Z,95964.75
2024-04-17T23:00:59.096Z,95971.19
2024-04-17T23:03:26.098Z,95975.09
2024-04-17T23:05:53.018Z,95978.53
2024-04-17T23:08:19.906Z,95972.50
2024-04-17T23:10:46.790Z,95971.22
2024-04-17T23:13:13.666Z,95970.78
2024-04-17T23:15:40.600Z,95977.97
2024-04-17T23:18:07.585Z,95966.69
2024-04-17T23:20:34.501Z,95963.88
2024-04-17T23:23:01.366Z,95967.19
2024-04-17T23:25:30.245Z,95969.44
2024-04-17T23:27:57.322Z,95958.72
2024-04-17T23:30:24.263Z,95967.47
2024-04-17T23:32:51.339Z,95965.88
2024-04-17T23:35:18.341Z,95963.47
2024-04-17T23:37:45.248Z,95961.38
2024-04-17T23:40:12.136Z,95963.78
2024-04-17T23:42:39.295Z,95967.34
2024-04-17T23:45:06.203Z,95970.59
2024-04-17T23:47:33.164Z,95960.75
2024-04-17T23:50:00.073Z,95964.19
2024-04-17T23:52:29.964Z,95966.00
2024-04-17T23:54:56.834Z,95959.31
2024-04-17T23:57:23.751Z,95958.88
2024-04-17T23:59:50.669Z,95956.13
